Have a Safe July 4th! 

Flight Track Log - Related Links

Times and Time Zones

All times are in EDT time to prevent confusion due to time zone crossing. See the AAL2007 flight status page for this flight to view local times or setup timezone preferences in your user account.

Time Position Orientation Groundspeed Altitude Reporting Facility
EDT Latitude Longitude Course Direction KTS MPH feet Rate Location/Type
Mon 06:02:56 PM 41.9167 -87.9167 207° Southwest 178 205 3,100  Level Chicago TRACON
Mon 06:04:00 PM 41.7946 -88.0943 201° Southwest  Level Estimated
Mon 06:04:02 PM 41.8667 -87.9500 206° Southwest 239 275 4,800  Level Chicago TRACON
Mon 06:04:56 PM 41.8000 -87.9833 200° South 277 319 7,300 2,943 Climbing Chicago TRACON
Mon 06:05:00 PM 41.6780 -88.0877 178° South  Level FlightAware Approximate
Mon 06:05:48 PM 41.7375 -88.0206 204° Southwest 285 328 10,000  Level Chicago Center
Mon 06:06:00 PM 41.5847 -88.1816 197° South  Level Estimated
Mon 06:06:51 PM 41.6586 -88.0564 199° South 295 339 12,400  Level Chicago Center
Mon 06:07:00 PM 41.4913 -88.2752 194° South  Level Estimated
Mon 06:07:53 PM 41.5772 -88.0983 201° Southwest 310 357 14,900  Level Chicago Center
Mon 06:08:00 PM 41.4018 -88.3646 207° Southwest  Level Estimated
Mon 06:08:55 PM 41.4903 -88.1403 200° South 313 360 15,000  Level Chicago Center
Mon 06:09:57 PM 41.4064 -88.1806 200° South 319 367 15,100 677 Climbing Chicago Center
Mon 06:10:59 PM 41.3081 -88.2261 199° South 374 430 16,400 1,645 Climbing Chicago Center
Mon 06:12:01 PM 41.2025 -88.2686 197° South 393 452 18,500 1,984 Climbing Chicago Center
Mon 06:13:03 PM 41.0961 -88.3231 201° Southwest 408 470 20,500 1,839 Climbing Chicago Center
Mon 06:14:05 PM 40.9842 -88.3714 198° South 419 482 22,300 1,742 Climbing Chicago Center
Mon 06:15:07 PM 40.8458 -88.4319 198° South 430 495 24,100 1,548 Climbing Chicago Center
Mon 06:16:09 PM 40.7250 -88.4869 199° South 448 516 25,500 1,296 Climbing Chicago Center
Mon 06:17:12 PM 40.6053 -88.5497 202° Southwest 460 529 26,800 1,152 Climbing Chicago Center
Mon 06:18:14 PM 40.5136 -88.6614 223° Southwest 446 513 27,900 1,065 Climbing Chicago Center
Mon 06:19:16 PM 40.4156 -88.7686 220° Southwest 455 524 29,000 1,113 Climbing Chicago Center
Mon 06:20:18 PM 40.3192 -88.8789 221° Southwest 460 529 30,200 1,355 Climbing Chicago Center
Mon 06:21:20 PM 40.2217 -88.9867 220° Southwest 458 527 31,800 871 Climbing Chicago Center
Mon 06:22:22 PM 40.1108 -89.1142 221° Southwest 442 509 32,000 97 Climbing Chicago Center
Mon 06:23:24 PM 40.0186 -89.2178 221° Southwest 437 503 32,000  Level Chicago Center
Mon 06:24:26 PM 39.9239 -89.3222 220° Southwest 441 507 32,000  Level Chicago Center
Mon 06:25:28 PM 39.8308 -89.4258 221° Southwest 440 506 32,000  Level Chicago Center
Mon 06:26:31 PM 39.7383 -89.5281 220° Southwest 437 503 32,000  Level Chicago Center
Mon 06:27:33 PM 39.6453 -89.6317 221° Southwest 438 504 32,000  Level Chicago Center
Mon 06:28:35 PM 39.5347 -89.7547 221° Southwest 438 504 32,000  Level Chicago Center
Mon 06:29:37 PM 39.4425 -89.8542 220° Southwest 431 496 32,000  Level Chicago Center
Mon 06:30:39 PM 39.3500 -89.9536 220° Southwest 431 496 32,000  Level Chicago Center
Mon 06:31:41 PM 39.2586 -90.0539 220° Southwest 430 495 32,000  Level Chicago Center
Mon 06:33:05 PM 39.1325 -90.1911 220° Southwest 431 496 32,000  Level Kansas City Center
Mon 06:34:07 PM 39.0394 -90.2931 220° Southwest 438 504 32,000  Level Kansas City Center
Mon 06:35:08 PM 38.9467 -90.3928 220° Southwest 438 504 32,000  Level Kansas City Center
Mon 06:36:10 PM 38.8489 -90.5003 221° Southwest 435 501 32,000  Level Kansas City Center
Mon 06:37:11 PM 38.7567 -90.6047 221° Southwest 438 504 32,000 244 Level Kansas City Center
Mon 06:38:13 PM 38.6594 -90.7175 222° Southwest 438 504 32,500 677 Climbing Kansas City Center
Mon 06:39:15 PM 38.5714 -90.8181 222° Southwest 431 496 33,400 732 Climbing Kansas City Center
Mon 06:40:16 PM 38.4836 -90.9194 222° Southwest 431 496 34,000 293 Climbing Kansas City Center
Mon 06:41:18 PM 38.3750 -91.0419 222° Southwest 434 499 34,000  Level Kansas City Center
Mon 06:42:20 PM 38.2836 -91.1453 222° Southwest 438 504 34,000  Level Kansas City Center
Mon 06:43:21 PM 38.1917 -91.2492 222° Southwest 441 507 34,000  Level Kansas City Center
Mon 06:44:23 PM 38.1031 -91.3494 222° Southwest 439 505 34,000  Level Kansas City Center
Mon 06:45:24 PM 38.0103 -91.4547 222° Southwest 441 507 34,000  Level Kansas City Center
Mon 06:46:26 PM 37.9167 -91.5581 221° Southwest 442 509 34,000  Level Kansas City Center
Mon 06:47:28 PM 37.8097 -91.6817 222° Southwest 435 501 34,000  Level Kansas City Center
Mon 06:48:29 PM 37.7169 -91.7836 221° Southwest 435 501 34,000  Level Kansas City Center
Mon 06:49:31 PM 37.6261 -91.8844 221° Southwest 435 501 34,000  Level Kansas City Center
Mon 06:50:32 PM 37.5347 -91.9875 222° Southwest 436 502 34,000  Level Kansas City Center
Mon 06:51:34 PM 37.4428 -92.0881 221° Southwest 435 501 34,000  Level Kansas City Center
Mon 06:52:36 PM 37.3514 -92.1908 222° Southwest 436 502 34,000  Level Kansas City Center
Mon 06:53:37 PM 37.2569 -92.2936 221° Southwest 442 509 34,000  Level Kansas City Center
Mon 06:54:39 PM 37.1633 -92.3964 221° Southwest 443 510 34,000  Level Kansas City Center
Mon 06:55:41 PM 37.0706 -92.4958 221° Southwest 440 506 34,000  Level Kansas City Center
Mon 06:56:42 PM 36.9769 -92.5969 221° Southwest 440 506 34,000  Level Kansas City Center
Mon 06:57:44 PM 36.8831 -92.6989 221° Southwest 443 510 34,000  Level Kansas City Center
Mon 06:58:46 PM 36.7700 -92.8208 221° Southwest 445 512 34,000  Level Kansas City Center
Mon 06:59:47 PM 36.6756 -92.9222 221° Southwest 446 513 34,000  Level Kansas City Center
Mon 07:00:49 PM 36.5836 -93.0186 220° Southwest 445 512 34,000  Level Kansas City Center
Mon 07:01:51 PM 36.4917 -93.1161 220° Southwest 440 506 34,000  Level Kansas City Center
Mon 07:02:52 PM 36.3997 -93.2150 221° Southwest 441 507 34,000  Level Kansas City Center
Mon 07:03:44 PM 36.3050 -93.3158 221° Southwest 444 511 34,000  Level Memphis Center
Mon 07:04:44 PM 36.2131 -93.4131 220° Southwest 444 511 34,000  Level Memphis Center
Mon 07:05:44 PM 36.1208 -93.5122 221° Southwest 444 511 34,000  Level Memphis Center
Mon 07:06:44 PM 36.0267 -93.6114 220° Southwest 444 511 34,000  Level Memphis Center
Mon 07:07:44 PM 35.9342 -93.7103 221° Southwest 444 511 34,000  Level Memphis Center
Mon 07:08:44 PM 35.8400 -93.8036 219° Southwest 444 511 34,000  Level Memphis Center
Mon 07:09:44 PM 35.7475 -93.9022 221° Southwest 444 511 34,000  Level Memphis Center
Mon 07:10:44 PM 35.6489 -94.0000 219° Southwest 449 517 34,000  Level Memphis Center
Mon 07:11:44 PM 35.5583 -94.0983 221° Southwest 443 510 34,000  Level Memphis Center
Mon 07:12:44 PM 35.4636 -94.1933 219° Southwest 443 510 34,000  Level Memphis Center
Mon 07:13:44 PM 35.3692 -94.2833 218° Southwest 443 510 34,000  Level Memphis Center
Mon 07:15:46 PM 35.1628 -94.4500 213° Southwest 444 511 34,000  Level Fort Worth Center
Mon 07:16:46 PM 35.0603 -94.5272 212° Southwest 439 505 34,000  Level Fort Worth Center
Mon 07:17:46 PM 34.9558 -94.6092 213° Southwest 439 505 34,000  Level Fort Worth Center
Mon 07:18:46 PM 34.8550 -94.6833 211° Southwest 439 505 34,000  Level Fort Worth Center
Mon 07:19:46 PM 34.7483 -94.7625 211° Southwest 444 511 34,000  Level Fort Worth Center
Mon 07:20:46 PM 34.6458 -94.8414 212° Southwest 449 517 34,000  Level Fort Worth Center
Mon 07:21:46 PM 34.5389 -94.9228 212° Southwest 449 517 34,000  Level Fort Worth Center
Mon 07:22:46 PM 34.4319 -95.0014 211° Southwest 449 517 34,000  Level Fort Worth Center
Mon 07:23:46 PM 34.3269 -95.0797 212° Southwest 454 522 34,000  Level Fort Worth Center
Mon 07:24:46 PM 34.2158 -95.1606 211° Southwest 454 522 34,000  Level Fort Worth Center
Mon 07:25:46 PM 34.1086 -95.2436 213° Southwest 459 528 34,000  Level Fort Worth Center
Mon 07:26:46 PM 33.9994 -95.3217 211° Southwest 459 528 34,000  Level Fort Worth Center
Mon 07:27:46 PM 33.8942 -95.3992 211° Southwest 459 528 34,000  Level Fort Worth Center
Mon 07:28:46 PM 33.7850 -95.4792 211° Southwest 459 528 34,000  Level Fort Worth Center
Mon 07:29:46 PM 33.6775 -95.5589 212° Southwest 459 528 34,000  Level Fort Worth Center
Mon 07:30:46 PM 33.5825 -95.6258 210° Southwest 459 528 34,000  Level Fort Worth Center
Mon 07:31:46 PM 33.4750 -95.7025 211° Southwest 459 528 34,000  Level Fort Worth Center
Mon 07:32:46 PM 33.3675 -95.7817 212° Southwest 459 528 34,000  Level Fort Worth Center
Mon 07:33:46 PM 33.2600 -95.8583 211° Southwest 459 528 34,000  Level Fort Worth Center
Mon 07:34:46 PM 33.1503 -95.9372 211° Southwest 459 528 34,000  Level Fort Worth Center
Mon 07:35:46 PM 33.0447 -96.0156 212° Southwest 459 528 34,000  Level Fort Worth Center
Mon 07:36:46 PM 32.9392 -96.0917 211° Southwest 453 521 34,000  Level Fort Worth Center
Mon 07:37:46 PM 32.8314 -96.1675 211° Southwest 453 521 34,000  Level Fort Worth Center
Mon 07:38:46 PM 32.7214 -96.2453 211° Southwest 453 521 34,000  Level Fort Worth Center
Mon 07:39:46 PM 32.6117 -96.3233 211° Southwest 453 521 34,000  Level Fort Worth Center
Mon 07:40:46 PM 32.5058 -96.4008 212° Southwest 453 521 34,000  Level Fort Worth Center
Mon 07:41:46 PM 32.3978 -96.4783 211° Southwest 453 521 34,000  Level Fort Worth Center
Mon 07:42:46 PM 32.2856 -96.5533 209° Southwest 453 521 34,000 -300 Level Fort Worth Center
Mon 07:43:46 PM 32.1775 -96.6353 213° Southwest 459 528 33,400 -750 Descending Fort Worth Center
Mon 07:44:46 PM 32.0694 -96.7097 210° Southwest 459 528 32,500 -700 Descending Fort Worth Center
Mon 07:45:46 PM 31.9531 -96.7964 212° Southwest 459 528 32,000 -750 Descending Fort Worth Center
Mon 07:46:46 PM 31.8406 -96.8606 206° Southwest 449 517 31,000 -1,000 Descending Fort Worth Center
Mon 07:47:46 PM 31.7239 -96.9250 205° Southwest 456 525 30,000 -1,000 Descending Fort Worth Center
Mon 07:48:46 PM 31.6092 -96.9889 205° Southwest 461 531 29,000 -985 Descending Fort Worth Center
Mon 07:50:00 PM 31.4725 -97.0633 205° Southwest 464 534 27,800 -1,368 Descending Houston Center
Mon 07:51:02 PM 31.3661 -97.1228 206° Southwest 425 489 25,900 -2,293 Descending Houston Center
Mon 07:52:03 PM 31.2603 -97.1808 205° Southwest 417 480 23,100 -2,439 Descending Houston Center
Mon 07:53:05 PM 31.1550 -97.2311 202° Southwest 406 467 20,900 -2,710 Descending Houston Center
Mon 07:54:07 PM 31.0375 -97.2767 198° South 384 442 17,500 -3,290 Descending Houston Center
Mon 07:55:09 PM 30.9375 -97.3153 198° South 368 423 14,100 -2,177 Descending Houston Center
Mon 07:56:11 PM 30.8497 -97.3500 199° South 362 417 13,000 -537 Descending Houston Center
Mon 07:57:12 PM 30.7642 -97.3950 204° Southwest 342 394 13,000  Level Houston Center
Mon 07:58:14 PM 30.6842 -97.4550 213° Southwest 340 391 13,000 -677 Level Houston Center
Mon 07:59:16 PM 30.6258 -97.5369 230° Southwest 338 389 11,600 -1,839 Descending Houston Center
Mon 08:00:18 PM 30.5925 -97.6511 251° West 319 367 9,200 -2,146 Descending Houston Center
Mon 08:01:19 PM 30.5219 -97.6903 206° Southwest 286 329 7,200 -1,707 Descending Houston Center
Mon 08:02:21 PM 30.4492 -97.6850 176° South 264 304 5,700 -1,210 Descending Houston Center
Mon 08:03:23 PM 30.3811 -97.6831 179° South 246 283 4,700 -1,016 Descending Houston Center
Mon 08:04:25 PM 30.3356 -97.6828 180° South 177 204 3,600 -1,161 Descending Houston Center
Mon 08:05:27 PM 30.2931 -97.6808 178° South 161 185 2,300 -1,113 Descending Houston Center
Mon 08:06:29 PM 30.2547 -97.6792 178° South 147 169 1,300 -683 Descending Houston Center
Mon 08:07:30 PM 30.2217 -97.6786 179° South 137 158 900 -393 Descending Houston Center

Login

Don't have an account? Register now (free) for customized features, flight alerts, and more!